createdAt,value
2022-09-13T00:01:11.922Z,79.30
2022-09-13T00:03:41.671Z,79.17
2022-09-13T00:06:11.871Z,78.95
2022-09-13T00:08:40.291Z,78.87
2022-09-13T00:11:09.203Z,78.90
2022-09-13T00:13:37.418Z,78.78
2022-09-13T00:16:05.846Z,79.20
2022-09-13T00:18:35.770Z,79.07
2022-09-13T00:21:11.079Z,78.82
2022-09-13T00:23:39.764Z,78.30
2022-09-13T00:26:10.101Z,78.33
2022-09-13T00:28:39.066Z,78.34
2022-09-13T00:31:09.943Z,78.37
2022-09-13T00:33:38.650Z,78.50
2022-09-13T00:36:10.641Z,78.47
2022-09-13T00:38:39.944Z,78.43
2022-09-13T00:41:11.454Z,78.50
2022-09-13T00:43:44.688Z,78.27
2022-09-13T00:46:18.649Z,78.06
2022-09-13T00:48:48.459Z,77.95
2022-09-13T00:51:18.234Z,77.74
2022-09-13T00:53:51.491Z,77.85
2022-09-13T00:56:23.899Z,78.17
2022-09-13T00:58:58.622Z,78.43
2022-09-13T01:01:32.609Z,78.52
2022-09-13T01:04:02.700Z,78.60
2022-09-13T01:06:36.393Z,78.67
2022-09-13T01:09:06.729Z,78.63
2022-09-13T01:11:42.017Z,78.77
2022-09-13T01:14:11.193Z,79.09
2022-09-13T01:16:39.543Z,79.13
2022-09-13T01:19:07.789Z,78.88
2022-09-13T01:22:26.326Z,79.37
2022-09-13T01:25:23.453Z,78.94
2022-09-13T01:28:10.810Z,79.39
2022-09-13T01:30:44.403Z,79.24
2022-09-13T01:33:33.023Z,79.88
2022-09-13T01:36:32.976Z,80.20
2022-09-13T01:39:05.841Z,80.74
2022-09-13T01:41:54.649Z,80.96
2022-09-13T01:44:35.629Z,81.07
2022-09-13T01:47:14.745Z,81.14
2022-09-13T01:49:48.771Z,81.35
2022-09-13T01:52:24.852Z,81.32
2022-09-13T01:55:02.608Z,81.29
2022-09-13T01:57:34.791Z,80.93
2022-09-13T02:00:09.948Z,81.41
2022-09-13T02:02:47.662Z,81.63
2022-09-13T02:05:21.269Z,81.65
2022-09-13T02:08:00.515Z,81.91
2022-09-13T02:10:34.539Z,82.01
2022-09-13T02:13:07.460Z,82.18
2022-09-13T02:15:40.265Z,81.34
2022-09-13T02:18:14.415Z,81.46
2022-09-13T02:20:47.156Z,81.81
2022-09-13T02:23:18.618Z,82.04
2022-09-13T02:25:48.215Z,82.02
2022-09-13T02:28:22.693Z,82.05
2022-09-13T02:30:53.960Z,81.59
2022-09-13T02:33:27.474Z,81.62
2022-09-13T02:35:59.881Z,81.62
2022-09-13T02:38:33.252Z,81.80
2022-09-13T02:41:08.295Z,82.04
2022-09-13T02:43:41.953Z,82.24
2022-09-13T02:46:21.404Z,82.38
2022-09-13T02:49:01.593Z,82.36
2022-09-13T02:51:36.709Z,82.00
2022-09-13T02:54:13.596Z,82.24
2022-09-13T02:56:49.950Z,82.46
2022-09-13T02:59:20.600Z,82.47
2022-09-13T03:01:53.973Z,82.13
2022-09-13T03:04:23.895Z,82.21
2022-09-13T03:06:52.341Z,82.04
2022-09-13T03:09:21.658Z,81.65
2022-09-13T03:12:08.984Z,82.21
2022-09-13T03:14:45.834Z,81.83
2022-09-13T03:17:25.573Z,82.10
2022-09-13T03:20:09.482Z,81.73
2022-09-13T03:23:13.399Z,81.83
2022-09-13T03:25:58.585Z,81.91
2022-09-13T03:28:35.791Z,82.05
2022-09-13T03:31:09.684Z,82.16
2022-09-13T03:33:48.060Z,81.78
2022-09-13T03:36:21.269Z,81.07
2022-09-13T03:38:57.827Z,81.54
2022-09-13T03:41:31.305Z,81.39
2022-09-13T03:44:02.972Z,81.55
2022-09-13T03:46:34.849Z,81.34
2022-09-13T03:49:07.010Z,81.57
2022-09-13T03:51:37.685Z,81.79
2022-09-13T03:54:08.971Z,81.90
2022-09-13T03:56:37.290Z,81.78
2022-09-13T03:59:05.544Z,81.49
2022-09-13T04:01:33.841Z,82.02
2022-09-13T04:04:02.194Z,82.31
2022-09-13T04:06:30.453Z,82.53
2022-09-13T04:09:00.470Z,82.67
2022-09-13T04:11:32.157Z,82.71
2022-09-13T04:14:00.597Z,82.66
2022-09-13T04:16:28.851Z,82.72
2022-09-13T04:18:57.196Z,82.43
2022-09-13T04:21:25.511Z,82.20
2022-09-13T04:23:53.827Z,82.40
2022-09-13T04:26:23.540Z,82.46
2022-09-13T04:28:54.145Z,82.42
2022-09-13T04:31:22.640Z,82.38
2022-09-13T04:33:51.127Z,82.02
2022-09-13T04:36:20.784Z,81.99
2022-09-13T04:38:49.305Z,82.23
2022-09-13T04:41:17.646Z,82.40
2022-09-13T04:43:51.315Z,82.59
2022-09-13T04:46:20.071Z,82.60
2022-09-13T04:48:50.646Z,82.57
2022-09-13T04:51:19.794Z,82.39
2022-09-13T04:53:48.090Z,82.67
2022-09-13T04:56:16.518Z,82.67
2022-09-13T04:58:44.885Z,82.71
2022-09-13T05:01:14.695Z,82.98
2022-09-13T05:03:43.005Z,83.11
2022-09-13T05:06:13.925Z,83.05
2022-09-13T05:08:42.555Z,82.84
2022-09-13T05:11:11.258Z,82.45
2022-09-13T05:13:39.576Z,82.78
2022-09-13T05:16:09.137Z,82.58
2022-09-13T05:18:43.166Z,82.46
2022-09-13T05:21:13.770Z,82.48
2022-09-13T05:23:42.032Z,82.78
2022-09-13T05:26:10.503Z,83.02
2022-09-13T05:28:39.229Z,83.26
2022-09-13T05:31:09.184Z,83.46
2022-09-13T05:33:39.743Z,83.30
2022-09-13T05:36:08.615Z,83.06
2022-09-13T05:38:36.959Z,82.65
2022-09-13T05:41:06.626Z,82.76
2022-09-13T05:43:36.576Z,83.10
2022-09-13T05:46:07.196Z,83.16
2022-09-13T05:48:38.552Z,83.04
2022-09-13T05:51:10.992Z,82.68
2022-09-13T05:53:42.260Z,82.43
2022-09-13T05:56:16.533Z,82.10
2022-09-13T05:58:48.303Z,82.21
2022-09-13T06:01:18.080Z,81.97
2022-09-13T06:03:49.348Z,82.27
2022-09-13T06:06:21.896Z,82.19
2022-09-13T06:08:53.634Z,82.29
2022-09-13T06:11:22.300Z,81.87
2022-09-13T06:13:50.583Z,81.67
2022-09-13T06:16:19.048Z,81.70
2022-09-13T06:18:47.527Z,81.99
2022-09-13T06:21:19.372Z,82.04
2022-09-13T06:23:48.507Z,81.77
2022-09-13T06:26:19.128Z,81.54
2022-09-13T06:28:49.403Z,81.79
2022-09-13T06:31:19.473Z,81.89
2022-09-13T06:33:48.066Z,81.94
2022-09-13T06:36:20.074Z,81.87
2022-09-13T06:38:49.711Z,81.32
2022-09-13T06:41:20.173Z,81.41
2022-09-13T06:43:49.209Z,81.03
2022-09-13T06:46:24.970Z,81.30
2022-09-13T06:48:54.345Z,81.55
2022-09-13T06:51:25.149Z,81.59
2022-09-13T06:53:56.693Z,81.60
2022-09-13T06:56:26.861Z,80.87
2022-09-13T06:58:58.238Z,80.48
2022-09-13T07:01:28.756Z,80.65
2022-09-13T07:04:00.984Z,80.74
2022-09-13T07:06:33.212Z,80.07
2022-09-13T07:09:03.459Z,80.59
2022-09-13T07:11:35.773Z,80.40
2022-09-13T07:14:04.913Z,79.30
2022-09-13T07:16:35.268Z,79.90
2022-09-13T07:19:06.635Z,79.76
2022-09-13T07:21:36.860Z,78.66
2022-09-13T07:24:05.888Z,79.45
2022-09-13T07:26:34.448Z,79.02
2022-09-13T07:29:05.535Z,79.82
2022-09-13T07:31:35.804Z,79.33
2022-09-13T07:34:06.206Z,78.65
2022-09-13T07:36:37.484Z,79.23
2022-09-13T07:39:09.863Z,78.72
2022-09-13T07:41:42.945Z,79.28
2022-09-13T07:44:11.782Z,78.43
2022-09-13T07:46:43.510Z,78.64
2022-09-13T07:49:13.740Z,77.85
2022-09-13T07:51:45.166Z,77.90
2022-09-13T07:54:16.302Z,77.91
2022-09-13T07:56:45.578Z,78.04
2022-09-13T07:59:15.874Z,77.44
2022-09-13T08:01:45.690Z,77.00
2022-09-13T08:04:17.359Z,78.04
2022-09-13T08:06:48.065Z,77.33
2022-09-13T08:09:17.349Z,76.82
2022-09-13T08:11:47.906Z,76.80
2022-09-13T08:14:17.754Z,75.69
2022-09-13T08:16:46.659Z,75.83
2022-09-13T08:19:17.506Z,75.15
2022-09-13T08:21:48.082Z,75.47
2022-09-13T08:24:17.796Z,75.79
2022-09-13T08:26:47.642Z,76.02
2022-09-13T08:29:17.009Z,75.49
2022-09-13T08:31:45.647Z,75.80
2022-09-13T08:34:15.444Z,76.04
2022-09-13T08:36:44.152Z,75.73
2022-09-13T08:39:14.410Z,76.17
2022-09-13T08:42:20.918Z,75.99
2022-09-13T08:44:54.061Z,76.05
2022-09-13T08:47:44.629Z,75.79
2022-09-13T08:50:19.150Z,75.92
2022-09-13T08:52:58.312Z,75.68
2022-09-13T08:55:41.895Z,76.39
2022-09-13T08:58:23.997Z,75.12
2022-09-13T09:01:01.152Z,75.41
2022-09-13T09:03:37.704Z,75.55
2022-09-13T09:06:14.808Z,74.99
2022-09-13T09:08:47.852Z,75.57
2022-09-13T09:11:29.847Z,75.13
2022-09-13T09:14:04.692Z,74.79
2022-09-13T09:16:38.050Z,75.08
2022-09-13T09:19:16.251Z,74.97
2022-09-13T09:21:48.138Z,74.98
2022-09-13T09:24:20.938Z,75.84
2022-09-13T09:26:50.685Z,74.62
2022-09-13T09:29:24.985Z,74.67
2022-09-13T09:32:03.367Z,73.98
2022-09-13T09:34:43.874Z,72.55
2022-09-13T09:37:21.016Z,71.60
2022-09-13T09:39:51.117Z,71.97
2022-09-13T09:42:24.925Z,71.25
2022-09-13T09:44:57.241Z,71.81
2022-09-13T09:47:29.683Z,71.52
2022-09-13T09:50:10.165Z,71.50
2022-09-13T09:52:44.721Z,71.66
2022-09-13T09:55:28.488Z,71.21
2022-09-13T09:58:00.757Z,71.47
2022-09-13T10:00:31.648Z,72.38
2022-09-13T10:03:03.477Z,72.34
2022-09-13T10:05:33.487Z,72.51
2022-09-13T10:08:04.016Z,71.95
2022-09-13T10:10:42.487Z,71.95
2022-09-13T10:13:18.455Z,72.25
2022-09-13T10:16:05.390Z,71.74
2022-09-13T10:18:45.364Z,71.40
2022-09-13T10:21:24.720Z,71.55
2022-09-13T10:24:13.263Z,71.19
2022-09-13T10:26:42.793Z,71.96
2022-09-13T10:29:17.730Z,72.00
2022-09-13T10:31:53.723Z,72.06
2022-09-13T10:34:24.759Z,72.09
2022-09-13T10:36:57.172Z,71.90
2022-09-13T10:39:26.796Z,71.63
2022-09-13T10:41:58.243Z,72.00
2022-09-13T10:44:42.224Z,71.79
2022-09-13T10:47:18.597Z,70.80
2022-09-13T10:49:48.973Z,70.73
2022-09-13T10:52:45.107Z,69.78
2022-09-13T10:55:37.614Z,70.48
2022-09-13T10:58:30.376Z,72.13
2022-09-13T11:01:40.136Z,70.52
2022-09-13T11:04:39.063Z,72.10
2022-09-13T11:07:30.211Z,71.35
2022-09-13T11:10:03.696Z,70.75
2022-09-13T11:12:42.297Z,70.68
2022-09-13T11:15:23.868Z,71.06
2022-09-13T11:18:24.738Z,71.96
2022-09-13T11:21:02.455Z,71.72
2022-09-13T11:24:05.145Z,71.11
2022-09-13T11:26:50.743Z,71.02
2022-09-13T11:29:38.951Z,71.91
2022-09-13T11:32:20.364Z,70.93
2022-09-13T11:35:06.479Z,69.31
2022-09-13T11:37:44.910Z,69.41
2022-09-13T11:40:29.982Z,69.77
2022-09-13T11:43:11.839Z,69.69
2022-09-13T11:45:46.282Z,71.64
2022-09-13T11:48:48.716Z,71.16
2022-09-13T11:51:26.413Z,68.20
2022-09-13T11:54:13.696Z,68.67
2022-09-13T11:56:46.244Z,67.81
2022-09-13T11:59:24.397Z,69.58
2022-09-13T12:01:57.225Z,67.46
2022-09-13T12:04:33.687Z,68.81
2022-09-13T12:07:05.653Z,67.01
2022-09-13T12:09:38.747Z,67.54
2022-09-13T12:12:11.252Z,69.99
2022-09-13T12:14:47.511Z,68.39
2022-09-13T12:17:26.676Z,67.08
2022-09-13T12:19:57.252Z,67.34
2022-09-13T12:22:31.071Z,68.48
2022-09-13T12:25:06.033Z,68.58
2022-09-13T12:27:40.650Z,69.21
2022-09-13T12:30:17.199Z,68.84
2022-09-13T12:32:47.493Z,69.58
2022-09-13T12:35:24.455Z,69.81
2022-09-13T12:38:28.229Z,70.08
2022-09-13T12:41:19.453Z,70.26
2022-09-13T12:44:10.832Z,70.13
2022-09-13T12:46:54.929Z,69.52
2022-09-13T12:49:40.119Z,71.21
2022-09-13T12:52:24.414Z,71.46
2022-09-13T12:55:42.617Z,71.68
2022-09-13T12:58:21.353Z,71.58
2022-09-13T13:01:09.059Z,72.19
2022-09-13T13:03:47.654Z,71.84
2022-09-13T13:06:33.474Z,71.78
2022-09-13T13:09:05.900Z,72.11
2022-09-13T13:11:45.107Z,73.31
2022-09-13T13:14:45.931Z,74.21
2022-09-13T13:17:40.741Z,75.16
2022-09-13T13:20:46.051Z,75.09
2022-09-13T13:23:23.490Z,75.63
2022-09-13T13:26:07.786Z,75.95
2022-09-13T13:29:15.535Z,76.89
2022-09-13T13:32:10.194Z,77.40
2022-09-13T13:34:48.958Z,77.90
2022-09-13T13:37:38.160Z,78.60
2022-09-13T13:40:21.183Z,78.88
2022-09-13T13:42:49.604Z,79.01
2022-09-13T13:45:28.266Z,79.49
2022-09-13T13:48:15.231Z,80.06
2022-09-13T13:51:29.550Z,79.85
2022-09-13T13:54:02.560Z,80.11
2022-09-13T13:56:46.137Z,80.63
2022-09-13T13:59:19.290Z,80.33
2022-09-13T14:01:51.624Z,80.94
2022-09-13T14:04:58.550Z,80.92
2022-09-13T14:07:58.993Z,80.94
2022-09-13T14:10:38.040Z,81.35
2022-09-13T14:13:23.008Z,81.41
2022-09-13T14:16:01.564Z,80.94
2022-09-13T14:18:53.876Z,81.20
2022-09-13T14:21:26.733Z,80.92
2022-09-13T14:24:19.150Z,80.93
2022-09-13T14:26:49.261Z,81.17
2022-09-13T14:29:19.984Z,81.33
2022-09-13T14:31:50.787Z,81.79
2022-09-13T14:34:23.934Z,81.57
2022-09-13T14:36:55.860Z,81.70
2022-09-13T14:39:24.996Z,81.46
2022-09-13T14:42:01.379Z,81.64
2022-09-13T14:44:30.520Z,81.36
2022-09-13T14:47:07.407Z,81.44
2022-09-13T14:49:40.974Z,81.49
2022-09-13T14:52:18.705Z,82.04
2022-09-13T14:54:51.246Z,81.71
2022-09-13T14:57:26.919Z,81.51
2022-09-13T14:59:58.610Z,81.04
2022-09-13T15:02:30.954Z,81.01
2022-09-13T15:05:01.068Z,81.29
2022-09-13T15:07:32.742Z,81.55
2022-09-13T15:10:09.287Z,81.69
2022-09-13T15:12:38.240Z,81.87
2022-09-13T15:15:27.897Z,82.47
2022-09-13T15:17:57.970Z,82.59
2022-09-13T15:20:28.313Z,82.88
2022-09-13T15:22:58.431Z,82.73
2022-09-13T15:25:29.494Z,82.89
2022-09-13T15:27:58.719Z,82.93
2022-09-13T15:30:29.680Z,82.88
2022-09-13T15:33:24.265Z,82.68
2022-09-13T15:35:53.770Z,82.11
2022-09-13T15:38:30.858Z,82.08
2022-09-13T15:41:02.950Z,81.94
2022-09-13T15:43:32.064Z,82.12
2022-09-13T15:46:01.636Z,82.15
2022-09-13T15:48:31.683Z,81.27
2022-09-13T15:51:11.944Z,80.91
2022-09-13T15:53:43.760Z,81.13
2022-09-13T15:56:15.781Z,80.47
2022-09-13T15:58:44.096Z,80.46
2022-09-13T16:01:13.506Z,80.67
2022-09-13T16:03:42.154Z,80.81
2022-09-13T16:06:10.895Z,80.87
2022-09-13T16:08:41.393Z,81.27
2022-09-13T16:11:09.684Z,80.96
2022-09-13T16:13:38.190Z,80.77
2022-09-13T16:16:06.755Z,80.49
2022-09-13T16:18:35.145Z,79.88
2022-09-13T16:21:03.806Z,80.43
2022-09-13T16:23:32.164Z,80.49
2022-09-13T16:26:01.949Z,79.99
2022-09-13T16:28:30.233Z,80.14
2022-09-13T16:30:58.557Z,80.39
2022-09-13T16:33:26.948Z,80.93
2022-09-13T16:35:58.025Z,80.72
2022-09-13T16:38:29.824Z,80.97
2022-09-13T16:40:58.116Z,81.33
2022-09-13T16:43:27.673Z,81.18
2022-09-13T16:45:55.958Z,81.73
2022-09-13T16:48:24.214Z,81.52
2022-09-13T16:50:52.558Z,81.70
2022-09-13T16:53:20.826Z,81.84
2022-09-13T16:55:49.046Z,82.14
2022-09-13T16:58:18.311Z,82.49
2022-09-13T17:00:47.945Z,82.42
2022-09-13T17:03:16.314Z,82.37
2022-09-13T17:05:44.739Z,82.52
2022-09-13T17:08:13.007Z,82.87
2022-09-13T17:10:41.564Z,82.52
2022-09-13T17:13:10.036Z,82.15
2022-09-13T17:15:40.242Z,82.13
2022-09-13T17:18:10.631Z,82.36
2022-09-13T17:20:44.798Z,82.35
2022-09-13T17:23:13.187Z,82.55
2022-09-13T17:25:43.565Z,82.92
2022-09-13T17:28:11.887Z,82.87
2022-09-13T17:30:41.286Z,83.45
2022-09-13T17:33:11.697Z,83.18
2022-09-13T17:35:40.217Z,83.52
2022-09-13T17:38:08.524Z,83.72
2022-09-13T17:40:36.865Z,83.55
2022-09-13T17:43:05.234Z,83.78
2022-09-13T17:45:34.007Z,83.71
2022-09-13T17:48:02.504Z,83.59
2022-09-13T17:50:32.130Z,83.78
2022-09-13T17:53:00.375Z,83.57
2022-09-13T17:55:29.487Z,83.03
2022-09-13T17:57:57.703Z,82.92
2022-09-13T18:00:26.596Z,82.94
2022-09-13T18:02:55.109Z,82.92
2022-09-13T18:05:23.403Z,82.87
2022-09-13T18:07:53.083Z,82.85
2022-09-13T18:10:48.839Z,83.17
2022-09-13T18:13:09.914Z,83.43
2022-09-13T18:15:38.200Z,83.83
2022-09-13T18:18:06.487Z,84.00
2022-09-13T18:20:39.886Z,83.96
2022-09-13T18:23:10.239Z,84.00
2022-09-13T18:25:38.668Z,84.08
2022-09-13T18:28:06.955Z,83.79
2022-09-13T18:30:35.291Z,84.31
2022-09-13T18:33:03.488Z,84.32
2022-09-13T18:35:31.748Z,84.26
2022-09-13T18:38:01.984Z,84.38
2022-09-13T18:40:31.695Z,84.23
2022-09-13T18:43:00.033Z,83.67
2022-09-13T18:45:28.371Z,83.74
2022-09-13T18:47:56.754Z,83.80
2022-09-13T18:50:25.118Z,83.67
2022-09-13T18:52:53.368Z,83.57
2022-09-13T18:55:22.545Z,83.64
2022-09-13T18:57:52.927Z,83.44
2022-09-13T19:00:21.466Z,83.44
2022-09-13T19:03:10.811Z,83.58
2022-09-13T19:05:40.082Z,83.49
2022-09-13T19:08:10.472Z,83.50
2022-09-13T19:10:39.534Z,83.59
2022-09-13T19:13:10.141Z,83.48
2022-09-13T19:15:38.579Z,83.72
2022-09-13T19:18:06.884Z,83.87
2022-09-13T19:20:35.173Z,83.61
2022-09-13T19:23:04.151Z,84.51
2022-09-13T19:25:35.271Z,85.28
2022-09-13T19:28:04.177Z,85.68
2022-09-13T19:30:35.359Z,86.57
2022-09-13T19:33:03.634Z,87.73
2022-09-13T19:35:31.894Z,87.73
2022-09-13T19:38:00.139Z,87.83
2022-09-13T19:40:28.470Z,88.02
2022-09-13T19:42:56.875Z,88.87
2022-09-13T19:45:25.925Z,88.28
2022-09-13T19:50:44.390Z,88.91
2022-09-13T19:53:12.679Z,89.23
2022-09-13T19:55:45.512Z,89.09
2022-09-13T19:58:14.308Z,88.76
2022-09-13T20:00:42.562Z,88.98
2022-09-13T20:03:12.433Z,88.70
2022-09-13T20:05:40.913Z,88.70
2022-09-13T20:08:09.193Z,88.93
2022-09-13T20:10:39.731Z,88.51
2022-09-13T20:13:08.683Z,88.96
2022-09-13T20:15:39.927Z,88.60
2022-09-13T20:18:13.246Z,88.98
2022-09-13T20:20:43.824Z,89.48
2022-09-13T20:23:12.343Z,89.04
2022-09-13T20:25:41.955Z,89.18
2022-09-13T20:28:10.378Z,88.73
2022-09-13T20:30:41.064Z,88.89
2022-09-13T20:33:10.381Z,88.89
2022-09-13T20:35:39.188Z,88.60
2022-09-13T20:38:09.804Z,88.58
2022-09-13T20:40:38.120Z,88.61
2022-09-13T20:43:06.323Z,88.61
2022-09-13T20:45:34.582Z,88.50
2022-09-13T20:48:03.095Z,88.34
2022-09-13T20:50:31.343Z,88.22
2022-09-13T20:53:00.446Z,88.50
2022-09-13T20:55:30.138Z,88.42
2022-09-13T20:57:58.423Z,88.49
2022-09-13T21:00:26.744Z,88.30
2022-09-13T21:02:55.050Z,88.55
2022-09-13T21:05:23.384Z,88.52
2022-09-13T21:08:08.711Z,88.44
2022-09-13T21:10:38.339Z,88.86
2022-09-13T21:13:09.130Z,89.54
2022-09-13T21:15:38.637Z,89.60
2022-09-13T21:18:06.996Z,90.16
2022-09-13T21:20:35.316Z,89.46
2022-09-13T21:23:03.655Z,89.60
2022-09-13T21:25:31.928Z,89.78
2022-09-13T21:28:01.517Z,90.05
2022-09-13T21:30:30.121Z,89.92
2022-09-13T21:32:58.418Z,89.35
2022-09-13T21:35:27.191Z,88.82
2022-09-13T21:37:55.430Z,88.98
2022-09-13T21:40:23.684Z,88.98
2022-09-13T21:42:52.332Z,88.15
2022-09-13T21:45:22.215Z,88.47
2022-09-13T21:47:50.562Z,88.87
2022-09-13T21:50:18.770Z,89.09
2022-09-13T21:52:47.517Z,89.25
2022-09-13T21:55:17.477Z,88.76
2022-09-13T21:57:45.841Z,89.57
2022-09-13T22:00:15.897Z,89.24
2022-09-13T22:02:45.509Z,89.59
2022-09-13T22:05:13.933Z,88.98
2022-09-13T22:07:42.304Z,89.37
2022-09-13T22:10:11.081Z,89.36
2022-09-13T22:12:39.665Z,89.04
2022-09-13T22:15:09.789Z,89.95
2022-09-13T22:17:37.961Z,90.32
2022-09-13T22:20:08.178Z,89.60
2022-09-13T22:22:36.463Z,88.60
2022-09-13T22:25:05.155Z,89.86
2022-09-13T22:27:33.371Z,89.77
2022-09-13T22:30:02.111Z,89.36
2022-09-13T22:32:30.756Z,90.37
2022-09-13T22:34:59.047Z,90.71
2022-09-13T22:37:28.588Z,90.03
2022-09-13T22:39:59.372Z,89.80
2022-09-13T22:42:27.807Z,89.55
2022-09-13T22:44:56.280Z,89.79
2022-09-13T22:47:24.561Z,89.48
2022-09-13T22:49:52.870Z,89.21
2022-09-13T22:52:21.152Z,89.43
2022-09-13T22:54:52.073Z,89.48
2022-09-13T22:57:20.522Z,89.66
2022-09-13T22:59:48.798Z,90.51
2022-09-13T23:02:17.087Z,89.50
2022-09-13T23:04:45.431Z,89.39
2022-09-13T23:07:13.895Z,89.70
2022-09-13T23:09:42.545Z,89.83
2022-09-13T23:12:14.650Z,89.20
2022-09-13T23:14:43.085Z,90.21
2022-09-13T23:17:11.469Z,89.06
2022-09-13T23:19:39.825Z,89.18
2022-09-13T23:22:08.337Z,88.67
2022-09-13T23:24:36.741Z,88.74
2022-09-13T23:27:05.287Z,88.06
2022-09-13T23:29:35.628Z,88.53
2022-09-13T23:32:03.962Z,88.99
2022-09-13T23:34:34.399Z,88.98
2022-09-13T23:37:02.698Z,88.69
2022-09-13T23:39:31.278Z,88.00
2022-09-13T23:41:59.776Z,88.30
2022-09-13T23:44:29.122Z,88.86
2022-09-13T23:46:58.845Z,88.51
2022-09-13T23:49:27.058Z,88.34
2022-09-13T23:51:55.350Z,88.44
2022-09-13T23:54:23.584Z,88.61
2022-09-13T23:56:51.869Z,88.38
2022-09-13T23:59:20.165Z,88.22
